This is the latest recevied weather packets stored in our database for station/object K1KOF. If no packets are shown the sender has not sent any weather packets the latest 1 day(s).
| Time | Temp. | Humidity | Pressure | Rain* | Wind** | Luminosity | Snow |
|---|---|---|---|---|---|---|---|
| 1778020998 | 26.11° C | 45% | 1023.9 hPa | 0 mm | 0.45 m/s, 277° | 50 W/m² | - |
| 1778020694 | 26.11° C | 43% | 1023.9 hPa | 0 mm | 1.34 m/s, 213° | 105 W/m² | - |
| 1778020392 | 26.11° C | 44% | 1024 hPa | 0 mm | 0.89 m/s, 253° | 98 W/m² | - |
| 1778020087 | 26.11° C | 43% | 1023.9 hPa | 0 mm | 2.24 m/s, 195° | 62 W/m² | - |
| 1778019783 | 26.11° C | 44% | 1024 hPa | 0 mm | 0 m/s | 75 W/m² | - |
| 1778019481 | 26.11° C | 43% | 1023.7 hPa | 0 mm | 2.24 m/s, 188° | 79 W/m² | - |
| 1778019177 | 26.11° C | 43% | 1023.9 hPa | 0 mm | 0.89 m/s, 206° | 66 W/m² | - |
| 1778018874 | 26.67° C | 42% | 1024.1 hPa | 0 mm | 2.24 m/s, 325° | 206 W/m² | - |
| 1778018571 | 26.67° C | 42% | 1024.1 hPa | 0 mm | 1.34 m/s, 240° | 336 W/m² | - |
| 1778018269 | 26.67° C | 44% | 1023.9 hPa | 0 mm | 0.89 m/s, 163° | 329 W/m² | - |
| 1778017967 | 26.67° C | 43% | 1023.7 hPa | 0 mm | 1.34 m/s, 177° | 119 W/m² | - |
| 1778017665 | 27.22° C | 43% | 1023.9 hPa | 0 mm | 0.45 m/s, 215° | 412 W/m² | - |
| 1778017362 | 27.22° C | 43% | 1024 hPa | 0 mm | 0.89 m/s, 195° | 426 W/m² | - |
| 1778017059 | 26.67° C | 42% | 1023.6 hPa | 0 mm | 0 m/s | 395 W/m² | - |
| 1778016756 | 26.67° C | 42% | 1023.9 hPa | 0 mm | 2.24 m/s, 177° | 465 W/m² | - |
| 1778016452 | 27.22° C | 43% | 1023.9 hPa | 0 mm | 0.89 m/s, 270° | 415 W/m² | - |
| 1778016150 | 26.67° C | 42% | 1023.8 hPa | 0 mm | 0.89 m/s, 225° | 350 W/m² | - |
| 1778015846 | 27.22° C | 42% | 1024 hPa | 0 mm | 1.79 m/s, 233° | 445 W/m² | - |
| 1778015544 | 26.67° C | 41% | 1024.1 hPa | 0 mm | 0.89 m/s, 275° | 440 W/m² | - |
| 1778015240 | 27.22° C | 42% | 1024 hPa | 0 mm | 2.68 m/s, 206° | 477 W/m² | - |
| 1778014937 | 27.78° C | 41% | 1024.2 hPa | 0 mm | 1.34 m/s, 205° | 458 W/m² | - |
| 1778014634 | 27.22° C | 42% | 1024.3 hPa | 0 mm | 0.45 m/s, 337° | 509 W/m² | - |
| 1778014333 | 27.78° C | 41% | 1024.4 hPa | 0 mm | 3.13 m/s, 255° | 354 W/m² | - |
| 1778014028 | 27.22° C | 40% | 1024.2 hPa | 0 mm | 2.68 m/s, 126° | 527 W/m² | - |
| 1778013727 | 27.22° C | 43% | 1024.5 hPa | 0 mm | 0.89 m/s, 204° | 497 W/m² | - |
* Rain latest hour (hover to see other rain measurements)
** Current wind speed in m/s (hover to see current wind gust speed)